Aérodrome :
LOGIN :

S'inscrire | Disclaimer

   EN    FR    IT 

 










Légende :    VFR   VFR Marginal   IFR   IFR Intensif   IFR Très Intensif
Visi : 
Plafond : 
>= 8 km
>= 3000ft
5 à 8 km
1000 à 3000 ft
1500m à 5 km
500 à 1000 ft
800 à 1500m
200 à 500 ft
< 800m
< 200 ft
Symboles :   Orages  Brouillard  Fortes neiges  Fortes précipitations  Vent > 20 kt
SIGMETs :   Divers  Orages  Givrage  Turbulence  Onde Orograph.  Cendres Volcan.







- Altitude de l'aérodrome : 1860 ft
- Code IATA : GRX


LEGR - Granada

DERNIER METAR :
  • 221500Z 00000KT 9999 FEW040 BKN050 09/02 Q1017

METARs EXPIRÉS :
  • 221430Z VRB01KT 9999 FEW040 SCT050 08/02 Q1017
  • 221400Z VRB01KT 9999 FEW040 SCT050 09/02 Q1017
  • 221330Z 00000KT 9999 FEW040 BKN050 09/02 Q1018
  • 221300Z 00000KT 9999 FEW040 BKN050 08/02 Q1019
  • 221230Z 00000KT 9999 BKN050 06/02 Q1019

TAF TAF LEGR
Valide du 22 à 15h jusqu'au 23 à 15h UTC


221400Z 2215/2315 29006KT 9999 FEW015 BKN030 TX11/2315Z TN02/2308Z
TEMPO 2220/2315 BKN014
PROB40
TEMPO 2220/2309 4000 -RA BR BKN008
Pas de NOTAMs connus pour ce terrain.
1 SIGMET publié pour la FIR Madrid (LECM) :
 
Onde orographique forte
LECM SIGMET 3 VALID 221300/221700 LEVA
LECM MADRID FIR/UIR SEV MTW FCST N OF LINE N4240 W001 - N4230 E00010 FL060/360 STNR NC=



MET'MAP, la Météo Aéronautique d'un coup d'oeil ! - Copyright ORBIFLY Décembre 2007 - Disclaimer

ORBIFLY MET'MAP TEAM :

Programmation & Développement : Alexandra Zaïnal
Conception & Développement : Baudouin d'Aumeries
Co-Programmation & Développement : Marc-Olivier Méhu
Soutien technique & logistique : Manuel Goepfert

Contact : metmap@orbifly.com




SOURCES & CREDITS :

   NOAA